Ramona, South Dakota
Current Conditions -  °F | °C
As of 1:55 AM on Friday 31 Oct 2014 (Local Time) from KMDS Reporting Station
Clear Clear  
Wind Chill: 13°   Ceiling: Unl
Heat Index: 25°   Visibility: 10mi
Dew Point: 18°   Wind: 14mph
Humidity: 74%   Direction: 10°N
Pressure: 30.5"   Gusts: NA
Location:  44.12°N, 97.22°W
Report Text: KMDS 310655Z AUTO 01012KT 10SM CLR M04/M08 A3050 RMK AO2
Loading
Personal Weather Stations






























Interactive Weather Map
Tropical Storm Tracking
New forecast layout! Learn more

10-Day Weather Forecast

Advertisements
Track Severe Weather on mobile